createdAt,value
2023-01-13T00:01:12.006Z,8.50
2023-01-13T00:03:40.208Z,8.50
2023-01-13T00:06:09.069Z,8.50
2023-01-13T00:08:37.198Z,8.40
2023-01-13T00:11:05.269Z,8.50
2023-01-13T00:13:35.500Z,8.50
2023-01-13T00:16:06.537Z,8.40
2023-01-13T00:18:37.027Z,8.40
2023-01-13T00:21:07.013Z,8.40
2023-01-13T00:23:36.598Z,8.50
2023-01-13T00:26:07.684Z,8.50
2023-01-13T00:28:37.193Z,8.40
2023-01-13T00:31:09.267Z,8.50
2023-01-13T00:33:39.729Z,8.40
2023-01-13T00:36:09.679Z,8.50
2023-01-13T00:38:39.046Z,8.40
2023-01-13T00:41:09.345Z,8.40
2023-01-13T00:43:38.103Z,8.40
2023-01-13T00:46:08.849Z,8.40
2023-01-13T00:48:39.736Z,8.40
2023-01-13T00:51:09.967Z,8.40
2023-01-13T00:53:41.069Z,8.40
2023-01-13T00:56:14.641Z,8.40
2023-01-13T00:58:44.447Z,8.40
2023-01-13T01:01:15.296Z,8.40
2023-01-13T01:03:45.275Z,8.40
2023-01-13T01:06:16.575Z,8.40
2023-01-13T01:08:45.983Z,8.40
2023-01-13T01:11:17.263Z,8.40
2023-01-13T01:13:46.687Z,8.40
2023-01-13T01:16:17.152Z,8.50
2023-01-13T01:18:48.689Z,8.50
2023-01-13T01:21:17.967Z,8.40
2023-01-13T01:23:46.844Z,8.40
2023-01-13T01:26:17.371Z,8.40
2023-01-13T01:28:46.536Z,8.50
2023-01-13T01:31:17.335Z,8.50
2023-01-13T01:33:47.702Z,8.50
2023-01-13T01:36:18.088Z,8.50
2023-01-13T01:38:47.200Z,8.50
2023-01-13T01:41:17.931Z,8.50
2023-01-13T01:44:05.988Z,8.50
2023-01-13T01:46:37.756Z,8.50
2023-01-13T01:49:16.725Z,8.40
2023-01-13T01:51:51.190Z,8.40
2023-01-13T01:54:24.190Z,8.50
2023-01-13T01:56:53.080Z,8.50
2023-01-13T01:59:21.512Z,8.50
2023-01-13T02:01:50.383Z,8.50
2023-01-13T02:04:25.482Z,8.50
2023-01-13T02:06:55.015Z,8.50
2023-01-13T02:09:23.541Z,8.50
2023-01-13T02:12:09.115Z,8.50
2023-01-13T02:14:38.949Z,8.50
2023-01-13T02:17:26.059Z,8.50
2023-01-13T02:20:37.398Z,8.50
2023-01-13T02:23:55.159Z,8.50
2023-01-13T02:26:51.579Z,8.40
2023-01-13T02:30:00.744Z,8.40
2023-01-13T02:32:35.193Z,8.40
2023-01-13T02:35:08.680Z,8.40
2023-01-13T02:37:41.276Z,8.30
2023-01-13T02:40:14.744Z,8.30
2023-01-13T02:43:04.483Z,8.30
2023-01-13T02:45:39.096Z,8.30
2023-01-13T02:48:10.180Z,8.30
2023-01-13T02:50:42.039Z,8.40
2023-01-13T02:53:15.064Z,8.40
2023-01-13T02:55:48.159Z,8.40
2023-01-13T02:58:21.615Z,8.40
2023-01-13T03:00:52.075Z,8.30
2023-01-13T03:03:20.799Z,8.30
2023-01-13T03:05:54.084Z,8.30
2023-01-13T03:08:39.914Z,8.30
2023-01-13T03:11:10.569Z,8.30
2023-01-13T03:13:57.213Z,8.30
2023-01-13T03:16:33.024Z,8.30
2023-01-13T03:19:17.345Z,8.30
2023-01-13T03:21:52.818Z,8.30
2023-01-13T03:24:27.712Z,8.20
2023-01-13T03:27:02.141Z,8.20
2023-01-13T03:29:36.501Z,8.20
2023-01-13T03:32:11.689Z,8.20
2023-01-13T03:34:46.274Z,8.30
2023-01-13T03:37:18.105Z,8.20
2023-01-13T03:39:53.196Z,8.20
2023-01-13T03:42:26.536Z,8.20
2023-01-13T03:44:57.231Z,8.20
2023-01-13T03:47:32.982Z,8.10
2023-01-13T03:50:06.268Z,8.10
2023-01-13T03:52:37.618Z,8.10
2023-01-13T03:55:09.556Z,8.00
2023-01-13T03:57:48.103Z,8.10
2023-01-13T04:00:18.366Z,8.00
2023-01-13T04:02:55.459Z,8.00
2023-01-13T04:05:24.735Z,8.00
2023-01-13T04:07:59.877Z,8.00
2023-01-13T04:10:32.679Z,8.00
2023-01-13T04:13:05.408Z,8.00
2023-01-13T04:15:37.808Z,8.00
2023-01-13T04:18:21.233Z,8.00
2023-01-13T04:20:51.217Z,8.00
2023-01-13T04:23:21.505Z,8.00
2023-01-13T04:25:50.567Z,8.10
2023-01-13T04:28:19.879Z,8.10
2023-01-13T04:30:48.838Z,8.10
2023-01-13T04:33:20.179Z,8.00
2023-01-13T04:35:48.928Z,8.00
2023-01-13T04:38:19.015Z,8.00
2023-01-13T04:40:47.446Z,8.00
2023-01-13T04:43:16.214Z,8.00
2023-01-13T04:45:44.795Z,8.00
2023-01-13T04:48:13.371Z,7.90
2023-01-13T04:50:43.137Z,7.90
2023-01-13T04:53:11.754Z,7.90
2023-01-13T04:55:40.243Z,7.90
2023-01-13T04:58:10.093Z,7.80
2023-01-13T05:00:39.529Z,7.80
2023-01-13T05:03:08.011Z,7.90
2023-01-13T05:05:36.461Z,7.90
2023-01-13T05:08:06.587Z,8.00
2023-01-13T05:10:34.903Z,8.10
2023-01-13T05:13:20.435Z,8.10
2023-01-13T05:16:06.871Z,8.20
2023-01-13T05:18:35.593Z,8.20
2023-01-13T05:21:03.832Z,8.30
2023-01-13T05:23:50.863Z,8.30
2023-01-13T05:26:19.110Z,8.30
2023-01-13T05:28:47.256Z,8.30
2023-01-13T05:31:15.455Z,8.30
2023-01-13T05:33:43.633Z,8.40
2023-01-13T05:36:11.755Z,8.40
2023-01-13T05:38:42.215Z,8.80
2023-01-13T05:41:28.848Z,8.40
2023-01-13T05:43:56.803Z,8.40
2023-01-13T05:46:24.901Z,8.40
2023-01-13T05:48:52.908Z,8.40
2023-01-13T05:51:26.132Z,8.40
2023-01-13T05:53:55.585Z,8.50
2023-01-13T05:56:23.610Z,8.40
2023-01-13T05:58:51.589Z,8.40
2023-01-13T06:01:19.754Z,8.40
2023-01-13T06:03:47.799Z,8.40
2023-01-13T06:06:15.917Z,8.40
2023-01-13T06:08:43.971Z,8.40
2023-01-13T06:11:13.509Z,8.40
2023-01-13T06:13:41.649Z,8.40
2023-01-13T06:16:11.587Z,8.50
2023-01-13T06:18:39.645Z,8.40
2023-01-13T06:21:07.735Z,8.40
2023-01-13T06:23:38.592Z,8.40
2023-01-13T06:26:13.134Z,8.40
2023-01-13T06:28:42.969Z,8.40
2023-01-13T06:31:11.953Z,8.40
2023-01-13T06:33:42.429Z,8.40
2023-01-13T06:36:17.757Z,8.40
2023-01-13T06:38:51.998Z,8.50
2023-01-13T06:41:41.898Z,8.60
2023-01-13T06:44:10.378Z,8.60
2023-01-13T06:46:38.608Z,8.70
2023-01-13T06:49:07.028Z,8.70
2023-01-13T06:51:35.274Z,8.60
2023-01-13T06:54:03.385Z,8.70
2023-01-13T06:56:31.568Z,8.60
2023-01-13T06:58:59.614Z,8.60
2023-01-13T07:01:29.282Z,8.60
2023-01-13T07:03:58.195Z,8.50
2023-01-13T07:06:26.325Z,8.50
2023-01-13T07:08:54.448Z,8.50
2023-01-13T07:11:22.549Z,8.50
2023-01-13T07:14:08.150Z,8.40
2023-01-13T07:16:37.719Z,8.40
2023-01-13T07:19:05.774Z,8.40
2023-01-13T07:21:33.887Z,8.50
2023-01-13T07:24:01.922Z,8.40
2023-01-13T07:26:29.989Z,8.40
2023-01-13T07:28:59.226Z,8.50
2023-01-13T07:31:27.661Z,8.60
2023-01-13T07:33:57.088Z,8.60
2023-01-13T07:36:25.147Z,8.60
2023-01-13T07:38:54.836Z,8.60
2023-01-13T07:41:40.924Z,8.60
2023-01-13T07:44:10.853Z,8.60
2023-01-13T07:46:39.513Z,8.60
2023-01-13T07:49:09.828Z,8.60
2023-01-13T07:51:39.275Z,8.70
2023-01-13T07:54:07.857Z,8.60
2023-01-13T07:56:35.929Z,8.60
2023-01-13T07:59:04.272Z,8.60
2023-01-13T08:01:32.937Z,8.60
2023-01-13T08:04:01.226Z,8.60
2023-01-13T08:06:30.713Z,8.60
2023-01-13T08:08:59.531Z,8.60
2023-01-13T08:11:27.717Z,8.60
2023-01-13T08:13:58.092Z,8.60
2023-01-13T08:16:26.560Z,8.70
2023-01-13T08:18:54.696Z,8.80
2023-01-13T08:21:22.797Z,8.80
2023-01-13T08:23:52.311Z,8.90
2023-01-13T08:26:20.358Z,8.90
2023-01-13T08:28:48.988Z,8.90
2023-01-13T08:31:20.114Z,8.90
2023-01-13T08:33:48.454Z,8.90
2023-01-13T08:36:18.404Z,8.90
2023-01-13T08:38:46.643Z,8.90
2023-01-13T08:41:38.758Z,8.90
2023-01-13T08:44:09.171Z,8.90
2023-01-13T08:46:37.990Z,9.00
2023-01-13T08:49:06.211Z,9.00
2023-01-13T08:51:34.457Z,9.00
2023-01-13T08:54:03.248Z,9.00
2023-01-13T08:56:35.457Z,9.00
2023-01-13T08:59:04.191Z,9.00
2023-01-13T09:01:32.908Z,9.00
2023-01-13T09:04:01.068Z,9.00
2023-01-13T09:06:29.233Z,9.00
2023-01-13T09:08:57.371Z,8.90
2023-01-13T09:11:48.032Z,9.00
2023-01-13T09:14:20.254Z,9.00
2023-01-13T09:16:48.557Z,9.00
2023-01-13T09:19:16.840Z,8.90
2023-01-13T09:21:44.999Z,8.90
2023-01-13T09:24:13.328Z,8.90
2023-01-13T09:26:41.540Z,8.90
2023-01-13T09:29:09.797Z,8.90
2023-01-13T09:31:39.219Z,9.00
2023-01-13T09:34:25.958Z,9.00
2023-01-13T09:36:55.177Z,9.10
2023-01-13T09:39:23.460Z,9.10
2023-01-13T09:42:12.995Z,9.30
2023-01-13T09:44:48.240Z,9.30
2023-01-13T09:47:23.434Z,9.30
2023-01-13T09:49:52.044Z,9.20
2023-01-13T09:52:26.642Z,9.20
2023-01-13T09:54:59.664Z,9.20
2023-01-13T09:57:30.892Z,9.10
2023-01-13T09:59:59.915Z,9.10
2023-01-13T10:02:55.139Z,9.00
2023-01-13T10:05:32.492Z,9.00
2023-01-13T10:08:06.591Z,8.90
2023-01-13T10:10:39.634Z,8.80
2023-01-13T10:13:16.206Z,8.70
2023-01-13T10:15:50.348Z,8.70
2023-01-13T10:18:25.163Z,8.60
2023-01-13T10:21:02.809Z,8.60
2023-01-13T10:23:47.547Z,8.60
2023-01-13T10:26:40.614Z,8.60
2023-01-13T10:29:21.622Z,8.60
2023-01-13T10:31:49.839Z,8.60
2023-01-13T10:34:20.629Z,8.70
2023-01-13T10:37:06.303Z,8.70
2023-01-13T10:39:42.007Z,8.70
2023-01-13T10:42:15.097Z,8.80
2023-01-13T10:44:52.092Z,8.90
2023-01-13T10:47:23.946Z,8.90
2023-01-13T10:50:19.389Z,9.00
2023-01-13T10:53:00.331Z,9.00
2023-01-13T10:55:31.678Z,9.10
2023-01-13T10:58:14.283Z,9.10
2023-01-13T11:00:42.641Z,9.20
2023-01-13T11:03:17.046Z,9.20
2023-01-13T11:05:57.428Z,9.30
2023-01-13T11:08:27.727Z,9.40
2023-01-13T11:10:57.634Z,9.50
2023-01-13T11:13:32.098Z,9.60
2023-01-13T11:16:05.717Z,9.60
2023-01-13T11:18:51.831Z,9.70
2023-01-13T11:21:25.578Z,9.60
2023-01-13T11:24:03.548Z,9.50
2023-01-13T11:26:42.368Z,9.50
2023-01-13T11:29:16.245Z,9.40
2023-01-13T11:31:48.583Z,9.40
2023-01-13T11:34:27.304Z,9.50
2023-01-13T11:36:59.910Z,9.40
2023-01-13T11:39:40.566Z,9.40
2023-01-13T11:42:24.384Z,9.40
2023-01-13T11:45:02.995Z,9.40
2023-01-13T11:47:32.670Z,9.40
2023-01-13T11:50:01.345Z,9.30
2023-01-13T11:52:44.959Z,9.40
2023-01-13T11:55:27.481Z,9.40
2023-01-13T11:58:12.370Z,9.40
2023-01-13T12:01:03.053Z,9.50
2023-01-13T12:03:36.169Z,9.50
2023-01-13T12:06:29.392Z,9.50
2023-01-13T12:09:17.278Z,9.50
2023-01-13T12:12:15.405Z,9.50
2023-01-13T12:15:08.688Z,9.50
2023-01-13T12:17:56.890Z,9.50
2023-01-13T12:20:35.489Z,9.50
2023-01-13T12:23:08.061Z,9.50
2023-01-13T12:25:44.883Z,9.50
2023-01-13T12:28:18.252Z,9.50
2023-01-13T12:30:50.705Z,9.50
2023-01-13T12:33:30.176Z,9.50
2023-01-13T12:36:06.741Z,9.50
2023-01-13T12:38:38.056Z,9.50
2023-01-13T12:41:17.662Z,9.60
2023-01-13T12:44:06.832Z,9.50
2023-01-13T12:46:36.894Z,9.50
2023-01-13T12:49:18.940Z,9.50
2023-01-13T12:52:23.640Z,9.60
2023-01-13T12:55:20.224Z,9.50
2023-01-13T12:58:19.222Z,9.60
2023-01-13T13:01:01.787Z,9.60
2023-01-13T13:03:35.099Z,9.70
2023-01-13T13:06:08.600Z,9.80
2023-01-13T13:08:47.613Z,9.80
2023-01-13T13:11:56.962Z,9.80
2023-01-13T13:15:04.904Z,9.90
2023-01-13T13:18:01.260Z,10.00
2023-01-13T13:20:56.035Z,10.10
2023-01-13T13:23:57.793Z,10.00
2023-01-13T13:26:45.874Z,10.00
2023-01-13T13:29:35.612Z,10.00
2023-01-13T13:32:45.284Z,10.00
2023-01-13T13:35:37.645Z,10.10
2023-01-13T13:38:37.161Z,10.00
2023-01-13T13:41:34.096Z,9.90
2023-01-13T13:44:21.784Z,9.80
2023-01-13T13:46:50.806Z,9.70
2023-01-13T13:49:21.444Z,9.60
2023-01-13T13:52:00.384Z,9.60
2023-01-13T13:54:29.009Z,9.50
2023-01-13T13:56:58.627Z,9.40
2023-01-13T13:59:30.599Z,9.30
2023-01-13T14:02:03.706Z,9.30
2023-01-13T14:04:34.109Z,9.30
2023-01-13T14:07:16.171Z,9.20
2023-01-13T14:09:47.236Z,9.20
2023-01-13T14:12:21.153Z,9.20
2023-01-13T14:14:50.716Z,9.20
2023-01-13T14:17:21.546Z,9.30
2023-01-13T14:19:54.877Z,9.30
2023-01-13T14:22:24.762Z,9.30
2023-01-13T14:24:55.736Z,9.30
2023-01-13T14:27:26.386Z,9.30
2023-01-13T14:29:55.645Z,9.30
2023-01-13T14:32:28.109Z,9.30
2023-01-13T14:34:56.412Z,9.30
2023-01-13T14:37:31.262Z,9.40
2023-01-13T14:39:59.401Z,9.40
2023-01-13T14:42:28.613Z,9.50
2023-01-13T14:44:56.901Z,9.40
2023-01-13T14:47:27.949Z,9.40
2023-01-13T14:50:02.612Z,9.40
2023-01-13T14:52:34.961Z,9.40
2023-01-13T14:55:24.228Z,9.30
2023-01-13T14:57:52.640Z,9.30
2023-01-13T15:00:23.765Z,9.30
2023-01-13T15:03:02.414Z,9.30
2023-01-13T15:05:39.168Z,9.30
2023-01-13T15:08:29.324Z,9.20
2023-01-13T15:11:00.891Z,9.10
2023-01-13T15:13:35.669Z,9.10
2023-01-13T15:16:06.620Z,9.20
2023-01-13T15:18:39.877Z,8.90
2023-01-13T15:21:08.558Z,8.80
2023-01-13T15:23:39.929Z,8.70
2023-01-13T15:26:21.271Z,8.60
2023-01-13T15:28:49.860Z,8.60
2023-01-13T15:31:18.301Z,8.50
2023-01-13T15:33:46.500Z,8.40
2023-01-13T15:36:22.901Z,8.30
2023-01-13T15:38:52.571Z,8.30
2023-01-13T15:41:41.887Z,8.20
2023-01-13T15:44:29.588Z,8.10
2023-01-13T15:46:58.597Z,8.10
2023-01-13T15:49:34.836Z,8.10
2023-01-13T15:52:04.180Z,8.00
2023-01-13T15:54:33.911Z,8.10
2023-01-13T15:57:02.307Z,8.20
2023-01-13T15:59:30.463Z,8.20
2023-01-13T16:01:58.544Z,8.20
2023-01-13T16:04:26.676Z,8.30
2023-01-13T16:06:55.381Z,8.30
2023-01-13T16:09:23.785Z,8.60
2023-01-13T16:11:53.285Z,8.40
2023-01-13T16:14:21.445Z,8.40
2023-01-13T16:16:49.607Z,8.40
2023-01-13T16:19:17.870Z,8.50
2023-01-13T16:21:46.329Z,8.50
2023-01-13T16:24:14.539Z,8.50
2023-01-13T16:26:52.260Z,8.50
2023-01-13T16:29:21.824Z,8.60
2023-01-13T16:31:50.101Z,8.50
2023-01-13T16:34:19.042Z,8.40
2023-01-13T16:36:47.326Z,8.40
2023-01-13T16:39:21.847Z,8.40
2023-01-13T16:41:50.221Z,8.40
2023-01-13T16:44:18.478Z,8.30
2023-01-13T16:46:47.951Z,8.30
2023-01-13T16:49:17.370Z,8.30
2023-01-13T16:51:45.685Z,8.30
2023-01-13T16:54:14.341Z,8.30
2023-01-13T16:56:42.460Z,8.40
2023-01-13T16:59:14.049Z,8.30
2023-01-13T17:01:44.927Z,8.30
2023-01-13T17:04:17.484Z,8.30
2023-01-13T17:06:56.404Z,8.30
2023-01-13T17:09:25.977Z,8.20
2023-01-13T17:11:54.887Z,8.30
2023-01-13T17:14:23.591Z,8.30
2023-01-13T17:16:53.772Z,8.30
2023-01-13T17:19:25.568Z,8.30
2023-01-13T17:21:53.855Z,8.20
2023-01-13T17:24:24.684Z,8.20
2023-01-13T17:26:53.024Z,8.00
2023-01-13T17:29:22.842Z,8.00
2023-01-13T17:31:51.711Z,8.00
2023-01-13T17:34:21.065Z,8.00
2023-01-13T17:36:50.922Z,7.90
2023-01-13T17:39:20.466Z,7.90
2023-01-13T17:41:52.622Z,8.00
2023-01-13T17:44:22.464Z,8.00
2023-01-13T17:46:50.998Z,8.00
2023-01-13T17:49:21.767Z,8.00
2023-01-13T17:51:51.543Z,8.10
2023-01-13T17:54:20.050Z,8.00
2023-01-13T17:56:48.353Z,8.00
2023-01-13T17:59:21.697Z,8.00
2023-01-13T18:01:50.020Z,7.90
2023-01-13T18:04:20.141Z,7.80
2023-01-13T18:06:48.891Z,7.90
2023-01-13T18:09:18.920Z,7.90
2023-01-13T18:11:47.491Z,7.90
2023-01-13T18:14:16.383Z,7.90
2023-01-13T18:16:44.701Z,7.90
2023-01-13T18:19:30.248Z,7.90
2023-01-13T18:22:15.687Z,8.00
2023-01-13T18:25:02.607Z,8.40
2023-01-13T18:27:34.184Z,8.10
2023-01-13T18:30:03.376Z,8.10
2023-01-13T18:32:33.531Z,8.20
2023-01-13T18:35:06.371Z,8.10
2023-01-13T18:37:38.502Z,8.10
2023-01-13T18:40:09.903Z,8.20
2023-01-13T18:42:52.256Z,8.20
2023-01-13T18:45:21.912Z,8.30
2023-01-13T18:47:50.055Z,8.30
2023-01-13T18:50:18.859Z,8.30
2023-01-13T18:52:47.140Z,8.30
2023-01-13T18:55:16.851Z,8.30
2023-01-13T18:57:45.125Z,8.30
2023-01-13T19:00:16.700Z,8.20
2023-01-13T19:02:47.019Z,8.20
2023-01-13T19:05:15.892Z,8.20
2023-01-13T19:07:50.427Z,8.20
2023-01-13T19:10:20.412Z,8.20
2023-01-13T19:12:48.596Z,8.20
2023-01-13T19:15:17.216Z,8.20
2023-01-13T19:17:46.724Z,8.20
2023-01-13T19:20:15.018Z,8.20
2023-01-13T19:22:43.388Z,8.30
2023-01-13T19:25:12.557Z,8.30
2023-01-13T19:27:42.853Z,8.30
2023-01-13T19:30:12.311Z,8.30
2023-01-13T19:32:40.459Z,8.30
2023-01-13T19:35:09.133Z,8.40
2023-01-13T19:37:38.354Z,8.30
2023-01-13T19:40:09.461Z,8.30
2023-01-13T19:42:55.115Z,8.30
2023-01-13T19:45:27.466Z,8.30
2023-01-13T19:47:55.826Z,8.30
2023-01-13T19:50:24.210Z,8.20
2023-01-13T19:52:52.457Z,8.50
2023-01-13T19:55:20.696Z,8.20
2023-01-13T19:57:48.993Z,8.10
2023-01-13T20:00:20.689Z,8.00
2023-01-13T20:02:52.920Z,8.00
2023-01-13T20:05:25.607Z,8.30
2023-01-13T20:07:54.068Z,8.00
2023-01-13T20:10:23.532Z,8.00
2023-01-13T20:12:51.857Z,8.00
2023-01-13T20:15:20.199Z,8.00
2023-01-13T20:17:48.527Z,8.00
2023-01-13T20:20:20.423Z,8.00
2023-01-13T20:22:49.652Z,8.40
2023-01-13T20:25:18.734Z,8.00
2023-01-13T20:27:47.768Z,7.90
2023-01-13T20:30:16.570Z,8.00
2023-01-13T20:32:45.276Z,8.00
2023-01-13T20:35:13.763Z,8.00
2023-01-13T20:37:44.167Z,8.00
2023-01-13T20:40:15.794Z,8.00
2023-01-13T20:42:45.307Z,8.00
2023-01-13T20:45:17.485Z,8.00
2023-01-13T20:47:46.841Z,8.00
2023-01-13T20:50:16.340Z,8.00
2023-01-13T20:52:45.818Z,8.00
2023-01-13T20:55:14.512Z,8.00
2023-01-13T20:57:42.598Z,8.00
2023-01-13T21:00:11.986Z,8.00
2023-01-13T21:02:41.818Z,8.00
2023-01-13T21:05:10.727Z,8.00
2023-01-13T21:07:38.860Z,8.00
2023-01-13T21:10:11.311Z,8.00
2023-01-13T21:12:56.996Z,7.90
2023-01-13T21:15:25.870Z,7.90
2023-01-13T21:18:11.545Z,7.90
2023-01-13T21:20:40.081Z,7.90
2023-01-13T21:23:08.908Z,7.80
2023-01-13T21:25:39.777Z,7.80
2023-01-13T21:28:10.467Z,7.80
2023-01-13T21:30:39.234Z,7.60
2023-01-13T21:33:07.532Z,7.60
2023-01-13T21:35:39.419Z,7.50
2023-01-13T21:38:07.489Z,7.50
2023-01-13T21:40:35.488Z,7.50
2023-01-13T21:43:37.257Z,7.60
2023-01-13T21:46:28.335Z,7.50
2023-01-13T21:48:57.077Z,7.60
2023-01-13T21:51:25.745Z,7.60
2023-01-13T21:53:54.815Z,7.60
2023-01-13T21:56:24.380Z,7.60
2023-01-13T21:58:56.307Z,7.60
2023-01-13T22:01:24.687Z,7.60
2023-01-13T22:04:10.970Z,7.60
2023-01-13T22:06:39.662Z,7.60
2023-01-13T22:09:08.703Z,7.60
2023-01-13T22:11:37.359Z,7.70
2023-01-13T22:14:07.840Z,7.60
2023-01-13T22:16:39.661Z,7.60
2023-01-13T22:19:10.130Z,7.60
2023-01-13T22:21:39.251Z,7.60
2023-01-13T22:24:08.605Z,7.60
2023-01-13T22:26:37.148Z,7.60
2023-01-13T22:29:08.287Z,7.50
2023-01-13T22:31:37.442Z,7.50
2023-01-13T22:34:06.438Z,7.50
2023-01-13T22:36:34.830Z,7.50
2023-01-13T22:39:03.343Z,7.50
2023-01-13T22:41:31.703Z,7.50
2023-01-13T22:44:00.159Z,7.40
2023-01-13T22:46:29.962Z,7.30
2023-01-13T22:48:58.180Z,7.30
2023-01-13T22:51:26.713Z,7.20
2023-01-13T22:53:55.781Z,7.20
2023-01-13T22:56:25.817Z,7.20
2023-01-13T22:58:57.928Z,7.20
2023-01-13T23:01:27.725Z,7.20
2023-01-13T23:03:57.922Z,7.20
2023-01-13T23:06:27.978Z,7.20
2023-01-13T23:08:56.460Z,7.10
2023-01-13T23:11:26.843Z,7.00
2023-01-13T23:13:59.708Z,7.10
2023-01-13T23:16:29.196Z,7.00
2023-01-13T23:18:59.800Z,7.00
2023-01-13T23:21:29.723Z,7.00
2023-01-13T23:23:59.080Z,7.00
2023-01-13T23:26:27.472Z,6.90
2023-01-13T23:29:00.296Z,6.90
2023-01-13T23:31:28.976Z,6.80
2023-01-13T23:33:58.832Z,6.80
2023-01-13T23:36:28.223Z,6.80
2023-01-13T23:38:56.917Z,6.70
2023-01-13T23:41:26.323Z,6.70
2023-01-13T23:43:55.988Z,6.70
2023-01-13T23:46:24.547Z,6.70
2023-01-13T23:48:52.846Z,6.70
2023-01-13T23:51:22.632Z,6.60
2023-01-13T23:53:51.954Z,6.60
2023-01-13T23:56:22.260Z,6.70
2023-01-13T23:58:51.398Z,6.80
